Time;durP1;ratioP1;P1;durP2;ratioP2;P2;SDS_P1;SDS_P2;PMS_P1;PMS_P2;Temp;Humidity;BMP_temperature;BMP_pressure;BME280_temperature;BME280_humidity;BME280_pressure;Samples;Min_cycle;Max_cycle;Signal;HPM_P1;HPM_P2
2023/06/27 00:02:23;;;;;;;6.75;6.00;;;23.10;77.70;;;;;;5116620;27;20467;-72
2023/06/27 00:04:48;;;;;;;8.63;6.00;;;23.10;76.90;;;;;;5131901;27;20479;-73
2023/06/27 00:07:14;;;;;;;9.38;6.55;;;23.10;76.60;;;;;;5134931;27;20076;-72
2023/06/27 00:09:40;;;;;;;6.80;6.10;;;23.10;76.30;;;;;;5135403;27;20063;-72
2023/06/27 00:12:09;;;;;;;8.05;6.50;;;23.10;76.40;;;;;;5116562;27;20028;-73
2023/06/27 00:14:37;;;;;;;7.80;6.65;;;23.10;76.40;;;;;;5096568;28;20024;-72
2023/06/27 00:17:11;;;;;;;9.70;6.40;;;23.10;76.30;;;;;;5114733;28;20069;-72
2023/06/27 00:19:36;;;;;;;7.68;6.88;;;23.20;75.80;;;;;;5114851;28;20023;-72
2023/06/27 00:22:04;;;;;;;9.30;6.18;;;23.20;75.60;;;;;;5114388;28;20032;-71
2023/06/27 00:24:29;;;;;;;9.73;6.40;;;23.20;75.40;;;;;;5114299;28;20133;-72
2023/06/27 00:26:55;;;;;;;8.07;6.75;;;23.20;74.90;;;;;;5114369;28;20484;-73
2023/06/27 00:29:21;;;;;;;7.38;5.88;;;23.30;74.40;;;;;;5114093;28;20046;-72
2023/06/27 00:31:46;;;;;;;8.55;6.97;;;23.40;74.00;;;;;;5114499;28;20027;-73
2023/06/27 00:34:12;;;;;;;8.95;6.55;;;23.60;73.70;;;;;;5113681;28;20050;-73
2023/06/27 00:36:37;;;;;;;11.10;6.63;;;23.60;73.60;;;;;;5114106;28;20106;-73
2023/06/27 00:39:03;;;;;;;9.82;6.80;;;23.60;73.90;;;;;;5114038;28;20027;-73
2023/06/27 00:41:29;;;;;;;13.98;7.38;;;23.60;73.60;;;;;;5113732;28;20460;-73
2023/06/27 00:43:56;;;;;;;10.85;7.13;;;23.70;73.90;;;;;;5113892;28;20115;-71
2023/06/27 00:46:36;;;;;;;13.70;7.15;;;23.70;73.50;;;;;;5113244;28;20043;-73
2023/06/27 00:49:02;;;;;;;12.32;6.90;;;23.80;73.50;;;;;;5114058;28;20039;-72
2023/06/27 00:51:29;;;;;;;9.15;6.55;;;23.80;73.40;;;;;;5113652;28;20034;-72
2023/06/27 00:53:56;;;;;;;8.13;6.50;;;23.80;73.50;;;;;;5114149;28;20108;-73
2023/06/27 00:56:22;;;;;;;9.20;7.20;;;23.80;73.40;;;;;;5116005;27;20028;-72
2023/06/27 00:58:48;;;;;;;7.88;6.38;;;23.80;73.40;;;;;;5134573;27;20093;-73
2023/06/27 01:01:13;;;;;;;11.43;6.50;;;23.90;73.20;;;;;;5131138;27;20023;-73
2023/06/27 01:03:39;;;;;;;11.63;7.03;;;23.80;72.80;;;;;;5113546;28;20364;-73
2023/06/27 01:06:17;;;;;;;13.13;6.68;;;23.80;73.00;;;;;;5113506;28;20039;-73
2023/06/27 01:08:50;;;;;;;8.52;6.72;;;23.80;73.10;;;;;;5120272;27;20023;-73
2023/06/27 01:11:18;;;;;;;7.43;6.63;;;23.80;73.10;;;;;;5133764;27;20031;-73
2023/06/27 01:13:49;;;;;;;10.57;6.18;;;23.70;73.10;;;;;;5134010;27;20475;-71
2023/06/27 01:16:21;;;;;;;7.00;5.90;;;23.80;73.30;;;;;;5116176;27;20027;-72
2023/06/27 01:18:48;;;;;;;14.00;5.82;;;23.70;73.50;;;;;;5113650;28;20457;-72
2023/06/27 01:21:16;;;;;;;6.95;6.15;;;23.70;73.70;;;;;;5113009;28;20051;-71
2023/06/27 01:23:54;;;;;;;6.80;6.10;;;23.70;73.70;;;;;;5112633;28;20054;-71
2023/06/27 01:26:20;;;;;;;9.85;6.97;;;23.60;73.70;;;;;;5112774;28;20027;-71
2023/06/27 01:28:46;;;;;;;9.40;6.60;;;23.60;73.50;;;;;;5113578;28;20474;-72
2023/06/27 01:31:22;;;;;;;7.55;6.75;;;23.60;73.50;;;;;;5112960;28;20460;-74
2023/06/27 01:34:15;;;;;;;9.32;6.63;;;23.60;73.70;;;;;;5113441;28;20024;-71
2023/06/27 01:36:50;;;;;;;9.77;6.90;;;23.60;74.20;;;;;;5113521;28;20024;-71
2023/06/27 01:39:23;;;;;;;12.07;6.68;;;23.60;74.50;;;;;;5112955;28;20027;-71
2023/06/27 01:42:01;;;;;;;13.02;6.90;;;23.60;75.10;;;;;;5113050;28;20031;-71
2023/06/27 01:44:27;;;;;;;7.90;6.90;;;23.60;75.20;;;;;;5112787;28;20030;-71
2023/06/27 01:46:53;;;;;;;13.20;6.88;;;23.60;75.60;;;;;;5122217;27;20054;-71
2023/06/27 01:49:19;;;;;;;7.55;6.30;;;23.60;76.20;;;;;;5132955;27;20027;-73
2023/06/27 01:51:44;;;;;;;7.15;6.32;;;23.50;76.70;;;;;;5133704;27;20294;-71
2023/06/27 01:54:10;;;;;;;11.23;6.22;;;23.50;77.30;;;;;;5133403;27;20116;-72
2023/06/27 01:56:36;;;;;;;8.85;5.82;;;23.40;77.80;;;;;;5133046;27;20019;-72
2023/06/27 01:59:02;;;;;;;10.63;6.40;;;23.40;78.40;;;;;;5133579;27;20087;-72
2023/06/27 02:01:28;;;;;;;8.48;6.18;;;23.30;78.70;;;;;;5133344;27;20033;-72
2023/06/27 02:03:54;;;;;;;7.47;5.68;;;23.30;78.90;;;;;;5133377;27;20078;-73
2023/06/27 02:06:19;;;;;;;14.68;6.63;;;23.30;79.50;;;;;;5114599;28;20055;-73
2023/06/27 02:08:45;;;;;;;7.72;6.30;;;23.20;79.60;;;;;;5130038;28;20023;-70
2023/06/27 02:11:11;;;;;;;9.93;6.13;;;23.20;79.20;;;;;;5115026;28;20019;-72
2023/06/27 02:13:37;;;;;;;7.47;5.90;;;23.20;79.20;;;;;;5132903;28;20495;-72
2023/06/27 02:16:03;;;;;;;8.20;5.70;;;23.10;78.90;;;;;;5133327;28;20027;-73
2023/06/27 02:18:29;;;;;;;8.90;5.40;;;23.10;79.10;;;;;;5132594;28;20076;-73
2023/06/27 02:20:55;;;;;;;8.07;5.15;;;23.10;79.10;;;;;;5133646;28;20027;-72
2023/06/27 02:23:21;;;;;;;7.47;5.40;;;23.00;79.40;;;;;;5132750;28;20031;-73
2023/06/27 02:25:47;;;;;;;6.93;4.72;;;23.00;79.70;;;;;;5133448;28;20023;-71
2023/06/27 02:28:12;;;;;;;6.28;4.90;;;23.00;79.80;;;;;;5133459;28;20027;-72
2023/06/27 02:30:38;;;;;;;9.00;5.03;;;23.00;79.70;;;;;;5132515;28;20031;-73
2023/06/27 02:33:03;;;;;;;10.98;5.22;;;23.00;79.70;;;;;;5114982;28;20027;-72
2023/06/27 02:35:29;;;;;;;7.30;5.47;;;23.00;79.70;;;;;;5135932;27;20034;-72
2023/06/27 02:37:55;;;;;;;8.82;5.10;;;22.90;79.50;;;;;;5137138;27;20019;-72
2023/06/27 02:40:20;;;;;;;6.43;4.97;;;22.90;79.30;;;;;;5136692;27;20072;-72
2023/06/27 02:42:46;;;;;;;9.10;5.22;;;22.90;79.60;;;;;;5118716;27;20031;-72
2023/06/27 02:45:11;;;;;;;8.65;5.15;;;22.90;80.00;;;;;;5137048;27;20021;-72
2023/06/27 02:47:38;;;;;;;5.53;4.90;;;22.90;80.40;;;;;;5136554;27;20050;-73
2023/06/27 02:50:04;;;;;;;9.43;5.80;;;22.90;80.60;;;;;;5136955;27;20080;-72
2023/06/27 02:52:30;;;;;;;6.28;4.57;;;22.90;81.60;;;;;;5136453;27;20031;-72
2023/06/27 02:54:55;;;;;;;7.20;5.40;;;22.80;81.80;;;;;;5136686;27;20126;-72
2023/06/27 02:57:21;;;;;;;6.50;5.30;;;22.80;81.80;;;;;;5136350;27;20423;-72
2023/06/27 02:59:46;;;;;;;7.47;5.60;;;22.80;81.70;;;;;;5137165;27;20463;-72
2023/06/27 03:02:12;;;;;;;9.25;5.60;;;22.80;82.00;;;;;;5136868;27;20034;-72
2023/06/27 03:04:38;;;;;;;6.97;5.13;;;22.80;81.90;;;;;;5136064;27;20139;-73
2023/06/27 03:07:04;;;;;;;10.85;5.82;;;22.80;82.40;;;;;;5130437;27;20059;-72
2023/06/27 03:09:30;;;;;;;7.03;5.60;;;22.80;82.40;;;;;;5115382;28;20164;-72
2023/06/27 03:11:55;;;;;;;6.88;6.13;;;22.70;82.60;;;;;;5116290;28;20020;-72
2023/06/27 03:14:21;;;;;;;7.00;5.03;;;22.70;82.90;;;;;;5130935;27;20031;-73
2023/06/27 03:16:47;;;;;;;6.03;5.28;;;22.70;83.00;;;;;;5136648;27;20149;-72
2023/06/27 03:19:12;;;;;;;8.32;5.40;;;22.70;83.10;;;;;;5136456;27;20026;-72
2023/06/27 03:21:38;;;;;;;9.18;5.53;;;22.70;83.90;;;;;;5135927;27;20238;-72
2023/06/27 03:24:04;;;;;;;7.88;6.18;;;22.70;84.50;;;;;;5136064;27;20494;-72
2023/06/27 03:26:30;;;;;;;6.72;6.03;;;22.60;85.10;;;;;;5135825;27;20027;-72
2023/06/27 03:28:55;;;;;;;8.52;6.13;;;22.60;86.30;;;;;;5136450;27;20033;-72
2023/06/27 03:31:21;;;;;;;8.60;6.40;;;22.60;87.50;;;;;;5135982;27;20055;-75
2023/06/27 03:33:47;;;;;;;9.48;6.45;;;22.50;88.00;;;;;;5136200;27;20038;-72
2023/06/27 03:36:13;;;;;;;7.68;6.78;;;22.50;88.50;;;;;;5136225;27;20031;-72
2023/06/27 03:38:38;;;;;;;11.40;6.40;;;22.50;89.10;;;;;;5135658;27;20102;-72
2023/06/27 03:41:04;;;;;;;10.63;6.85;;;22.40;89.40;;;;;;5135831;27;20059;-72
2023/06/27 03:43:30;;;;;;;10.57;6.55;;;22.40;89.90;;;;;;5135965;27;20383;-72
2023/06/27 03:45:55;;;;;;;9.55;6.68;;;22.40;90.10;;;;;;5136448;27;20059;-72
2023/06/27 03:48:21;;;;;;;9.70;6.63;;;22.30;90.20;;;;;;5136296;27;20086;-74
2023/06/27 03:50:46;;;;;;;12.85;6.55;;;22.30;90.60;;;;;;5135321;27;20019;-72
2023/06/27 03:53:12;;;;;;;7.10;6.18;;;22.30;91.00;;;;;;5135947;27;20480;-71
2023/06/27 03:55:40;;;;;;;13.50;6.80;;;22.30;91.30;;;;;;5135328;27;20491;-72
2023/06/27 03:58:06;;;;;;;7.45;6.18;;;22.30;91.70;;;;;;5135718;27;20027;-72
2023/06/27 04:00:32;;;;;;;11.70;7.50;;;22.30;91.80;;;;;;5135263;27;20031;-72
2023/06/27 04:02:58;;;;;;;11.60;7.20;;;22.20;92.00;;;;;;5135847;27;20418;-72
2023/06/27 04:05:23;;;;;;;8.88;6.45;;;22.20;92.40;;;;;;5135374;27;20111;-75
2023/06/27 04:07:49;;;;;;;9.75;7.32;;;22.20;92.60;;;;;;5135406;27;20103;-72
2023/06/27 04:10:15;;;;;;;11.48;6.43;;;22.10;92.90;;;;;;5135441;27;20367;-72
2023/06/27 04:12:41;;;;;;;11.00;6.68;;;22.00;93.20;;;;;;5120765;27;20032;-72
2023/06/27 04:15:07;;;;;;;9.02;7.07;;;22.00;93.20;;;;;;5114888;28;20465;-74
2023/06/27 04:17:32;;;;;;;12.40;7.25;;;22.00;93.20;;;;;;5114342;28;20035;-73
2023/06/27 04:19:58;;;;;;;8.95;6.95;;;22.00;93.30;;;;;;5114867;28;20020;-73
2023/06/27 04:22:24;;;;;;;7.35;6.60;;;22.00;93.60;;;;;;5114650;28;20032;-75
2023/06/27 04:24:49;;;;;;;7.55;6.38;;;22.00;93.70;;;;;;5114347;28;20066;-73
2023/06/27 04:27:15;;;;;;;8.52;6.65;;;21.90;93.80;;;;;;5114530;28;20028;-72
2023/06/27 04:29:40;;;;;;;10.23;6.55;;;22.00;93.90;;;;;;5114148;28;20027;-72
2023/06/27 04:32:07;;;;;;;9.63;6.68;;;21.90;93.90;;;;;;5114444;28;20027;-72
2023/06/27 04:34:36;;;;;;;10.88;6.80;;;21.90;94.00;;;;;;5113894;28;20169;-72
2023/06/27 04:37:05;;;;;;;9.63;6.93;;;21.90;94.40;;;;;;5114353;28;20020;-74
2023/06/27 04:39:31;;;;;;;8.13;6.88;;;21.80;94.70;;;;;;5113927;28;20031;-73
2023/06/27 04:41:56;;;;;;;10.10;6.22;;;21.80;95.10;;;;;;5114313;28;20110;-72
2023/06/27 04:44:22;;;;;;;9.00;7.05;;;21.80;95.60;;;;;;5114288;28;20140;-72
2023/06/27 04:46:48;;;;;;;12.95;8.32;;;21.80;95.90;;;;;;5113640;28;20043;-72
2023/06/27 04:49:14;;;;;;;10.20;7.68;;;21.70;96.40;;;;;;5128202;27;20038;-72
2023/06/27 04:51:40;;;;;;;9.00;7.05;;;21.70;96.90;;;;;;5116058;27;20028;-72
2023/06/27 04:54:05;;;;;;;11.43;7.97;;;21.70;97.40;;;;;;5114056;28;20118;-72
2023/06/27 04:56:33;;;;;;;11.32;7.68;;;21.70;97.80;;;;;;5113273;28;20023;-72
2023/06/27 04:58:59;;;;;;;8.82;7.00;;;21.70;98.00;;;;;;5114123;28;20388;-72
2023/06/27 05:01:24;;;;;;;10.98;7.60;;;21.60;98.30;;;;;;5113976;28;20019;-72
2023/06/27 05:03:50;;;;;;;11.57;7.20;;;21.60;98.40;;;;;;5113285;28;20104;-72
2023/06/27 05:06:16;;;;;;;8.32;7.07;;;21.70;98.90;;;;;;5113561;28;20069;-72
2023/06/27 05:08:41;;;;;;;13.88;8.43;;;21.60;99.30;;;;;;5113281;28;20384;-72
2023/06/27 05:11:07;;;;;;;8.80;7.75;;;21.60;99.60;;;;;;5130490;27;20106;-73
2023/06/27 05:13:32;;;;;;;9.18;7.47;;;21.60;99.90;;;;;;5123101;27;20055;-72
2023/06/27 05:16:03;;;;;;;13.15;8.32;;;21.70;99.90;;;;;;5113809;28;20024;-72
2023/06/27 05:18:29;;;;;;;17.70;7.85;;;21.60;99.90;;;;;;5113748;28;20028;-75
2023/06/27 05:20:55;;;;;;;13.95;7.50;;;21.50;99.90;;;;;;5113881;28;20107;-72
2023/06/27 05:23:21;;;;;;;12.13;7.75;;;21.50;99.90;;;;;;5113674;28;20031;-72
2023/06/27 05:25:47;;;;;;;11.25;7.15;;;21.50;99.90;;;;;;5113397;28;20019;-72
2023/06/27 05:28:13;;;;;;;12.77;7.70;;;21.50;99.90;;;;;;5113722;28;20027;-73
2023/06/27 05:30:39;;;;;;;11.93;6.80;;;21.50;99.90;;;;;;5113291;28;20020;-72
2023/06/27 05:33:04;;;;;;;12.02;7.25;;;21.50;99.90;;;;;;5113774;28;20142;-72
2023/06/27 05:35:31;;;;;;;10.52;7.00;;;21.40;99.60;;;;;;5095191;28;20483;-75
2023/06/27 05:37:58;;;;;;;13.63;6.97;;;21.40;99.60;;;;;;5113584;28;20028;-72
2023/06/27 05:40:23;;;;;;;9.05;6.85;;;21.40;99.20;;;;;;5113525;28;20039;-72
2023/06/27 05:42:49;;;;;;;8.80;6.50;;;21.30;98.90;;;;;;5113168;28;20031;-72
2023/06/27 05:45:14;;;;;;;11.70;6.93;;;21.20;98.70;;;;;;5113250;28;20429;-72
2023/06/27 05:47:42;;;;;;;12.48;6.63;;;21.20;98.40;;;;;;5112589;28;20056;-72
2023/06/27 05:50:09;;;;;;;12.05;6.72;;;21.20;98.50;;;;;;5113401;28;20468;-72
2023/06/27 05:52:34;;;;;;;9.82;6.10;;;21.20;97.90;;;;;;5094694;28;20141;-72
2023/06/27 05:55:00;;;;;;;8.57;5.35;;;21.20;97.10;;;;;;5113406;28;20460;-72
2023/06/27 05:57:25;;;;;;;9.82;6.25;;;21.10;96.80;;;;;;5094891;28;20019;-72
2023/06/27 05:59:51;;;;;;;15.55;6.85;;;21.10;96.60;;;;;;5112833;28;20349;-72
2023/06/27 06:02:17;;;;;;;7.22;5.75;;;21.10;96.60;;;;;;5113104;28;20024;-71
2023/06/27 06:04:43;;;;;;;8.90;5.57;;;21.10;96.10;;;;;;5112804;28;20036;-73
2023/06/27 06:07:09;;;;;;;10.65;6.00;;;21.10;95.60;;;;;;5113330;28;20034;-72
2023/06/27 06:09:34;;;;;;;9.20;5.47;;;21.10;95.40;;;;;;5116435;28;20027;-73
2023/06/27 06:12:00;;;;;;;8.95;5.75;;;21.10;95.10;;;;;;5119816;28;20107;-72
2023/06/27 06:14:25;;;;;;;8.02;5.28;;;21.10;94.90;;;;;;5101615;28;20023;-72
2023/06/27 06:16:51;;;;;;;8.43;6.13;;;21.10;94.80;;;;;;5119582;28;20020;-73
2023/06/27 06:19:17;;;;;;;10.25;5.75;;;21.10;94.70;;;;;;5122288;27;20468;-73
2023/06/27 06:21:43;;;;;;;9.93;5.82;;;21.10;94.30;;;;;;5119304;28;20032;-73
2023/06/27 06:24:08;;;;;;;9.63;5.32;;;21.10;93.80;;;;;;5119960;28;20464;-72
2023/06/27 06:26:38;;;;;;;8.75;5.65;;;21.10;93.70;;;;;;5119819;28;20020;-76
2023/06/27 06:29:04;;;;;;;8.82;5.15;;;21.10;93.60;;;;;;5119760;28;20482;-72
2023/06/27 06:31:30;;;;;;;6.82;4.97;;;21.10;93.10;;;;;;5119616;28;20444;-72
2023/06/27 06:33:57;;;;;;;10.07;4.82;;;21.10;92.90;;;;;;5119421;28;20027;-72
2023/06/27 06:36:23;;;;;;;6.50;4.93;;;21.10;92.60;;;;;;5119380;28;20564;-72
2023/06/27 06:38:48;;;;;;;16.38;4.90;;;21.20;92.30;;;;;;5101202;28;20167;-73
2023/06/27 06:41:14;;;;;;;11.05;4.82;;;21.20;92.10;;;;;;5119621;28;20020;-72
2023/06/27 06:43:40;;;;;;;9.25;4.38;;;21.20;91.80;;;;;;5119221;28;20031;-73
2023/06/27 06:46:06;;;;;;;9.80;4.60;;;21.20;91.60;;;;;;5101297;28;20134;-72
2023/06/27 06:48:31;;;;;;;8.45;4.60;;;21.20;91.60;;;;;;5119504;28;20454;-72
2023/06/27 06:50:57;;;;;;;7.10;4.47;;;21.20;91.50;;;;;;5118853;28;20031;-72
2023/06/27 06:53:23;;;;;;;9.60;5.32;;;21.20;91.30;;;;;;5119719;28;20071;-73
2023/06/27 06:55:48;;;;;;;9.95;4.25;;;21.20;91.00;;;;;;5118803;28;20127;-72
2023/06/27 06:58:15;;;;;;;7.10;4.93;;;21.20;91.20;;;;;;5119391;28;20048;-72
2023/06/27 07:00:41;;;;;;;9.38;5.00;;;21.10;91.90;;;;;;5118860;28;20027;-72
2023/06/27 07:03:08;;;;;;;9.35;4.55;;;21.10;91.50;;;;;;5119143;28;20027;-72
2023/06/27 07:05:35;;;;;;;8.25;4.68;;;21.10;91.60;;;;;;5119394;28;20085;-72
2023/06/27 07:08:04;;;;;;;8.52;5.15;;;21.10;91.80;;;;;;5119023;28;20055;-71
2023/06/27 07:10:30;;;;;;;8.18;4.00;;;21.10;91.60;;;;;;5119357;28;20024;-73
2023/06/27 07:12:56;;;;;;;6.80;4.47;;;21.20;91.60;;;;;;5132782;27;20435;-74
2023/06/27 07:15:23;;;;;;;10.90;4.70;;;21.20;91.40;;;;;;5139873;27;20094;-72
2023/06/27 07:17:50;;;;;;;7.90;4.40;;;21.30;91.10;;;;;;5127942;27;20123;-71
2023/06/27 07:20:16;;;;;;;9.13;4.45;;;21.20;90.80;;;;;;5117707;28;20032;-72
2023/06/27 07:22:41;;;;;;;7.13;4.18;;;21.20;90.80;;;;;;5114997;28;20034;-72
2023/06/27 07:25:07;;;;;;;8.43;4.65;;;21.30;90.70;;;;;;5097613;28;20035;-72
2023/06/27 07:27:33;;;;;;;6.90;4.55;;;21.30;90.40;;;;;;5115724;28;20024;-72
2023/06/27 07:29:59;;;;;;;8.10;4.35;;;21.50;90.50;;;;;;5115333;28;20034;-71
2023/06/27 07:32:24;;;;;;;8.88;4.18;;;21.70;90.50;;;;;;5115999;28;20452;-71
2023/06/27 07:34:50;;;;;;;6.57;4.75;;;22.00;89.40;;;;;;5115279;28;20043;-71
2023/06/27 07:37:15;;;;;;;11.13;4.78;;;22.00;88.10;;;;;;5115933;28;20027;-72
2023/06/27 07:39:41;;;;;;;8.68;4.45;;;22.00;88.40;;;;;;5115395;28;20056;-72
2023/06/27 07:42:07;;;;;;;7.60;4.45;;;21.80;90.20;;;;;;5115676;28;20050;-72
2023/06/27 07:44:34;;;;;;;11.93;5.47;;;21.70;91.90;;;;;;5115331;28;20103;-72
2023/06/27 07:46:59;;;;;;;10.65;5.43;;;21.70;93.50;;;;;;5115261;28;20051;-72
2023/06/27 07:49:25;;;;;;;12.77;5.57;;;21.50;94.70;;;;;;5115573;28;20038;-72
2023/06/27 07:51:51;;;;;;;8.07;5.57;;;21.20;96.50;;;;;;5097014;28;20023;-72
2023/06/27 07:54:19;;;;;;;13.68;7.03;;;21.10;99.00;;;;;;5115500;28;20028;-72
2023/06/27 07:56:45;;;;;;;13.15;6.25;;;20.90;99.90;;;;;;5115116;28;20055;-72
2023/06/27 07:59:12;;;;;;;11.88;6.55;;;20.80;99.90;;;;;;5115392;28;20027;-72
2023/06/27 08:01:40;;;;;;;12.38;5.97;;;20.70;99.90;;;;;;5115169;28;20372;-72
2023/06/27 08:04:05;;;;;;;10.00;5.97;;;20.70;99.90;;;;;;5115064;28;20036;-72
2023/06/27 08:06:31;;;;;;;10.60;5.38;;;20.80;99.90;;;;;;5115420;28;20061;-72
2023/06/27 08:08:57;;;;;;;10.75;5.22;;;20.70;99.90;;;;;;5096585;28;20103;-73
2023/06/27 08:11:23;;;;;;;7.07;4.45;;;20.60;99.90;;;;;;5115152;28;20024;-72
2023/06/27 08:13:48;;;;;;;8.43;5.00;;;20.50;99.90;;;;;;5115090;28;20452;-72
2023/06/27 08:16:14;;;;;;;6.55;5.07;;;20.30;99.90;;;;;;5115129;28;20490;-72
2023/06/27 08:18:39;;;;;;;8.32;5.00;;;20.20;99.90;;;;;;5117666;27;20039;-72
2023/06/27 08:21:05;;;;;;;8.05;5.95;;;20.30;99.90;;;;;;5114612;28;20024;-72
2023/06/27 08:23:31;;;;;;;14.50;5.22;;;20.30;99.90;;;;;;5114849;28;20165;-72
2023/06/27 08:25:57;;;;;;;8.55;5.30;;;20.30;99.90;;;;;;5114217;28;20024;-72
2023/06/27 08:28:22;;;;;;;11.43;6.10;;;20.20;99.90;;;;;;5115258;28;20024;-72
2023/06/27 08:30:48;;;;;;;11.05;6.10;;;20.20;99.90;;;;;;5114510;28;20032;-72
2023/06/27 08:33:14;;;;;;;12.05;6.28;;;20.10;99.90;;;;;;5114456;28;20106;-72
2023/06/27 08:35:39;;;;;;;8.20;6.38;;;20.10;99.90;;;;;;5114738;28;20364;-72
2023/06/27 08:38:05;;;;;;;9.38;6.32;;;20.00;99.90;;;;;;5114380;28;20138;-72
2023/06/27 08:40:37;;;;;;;9.77;6.38;;;20.10;99.90;;;;;;5114353;28;20030;-72
2023/06/27 08:43:07;;;;;;;12.55;5.95;;;20.00;99.90;;;;;;5113839;28;20471;-72
2023/06/27 08:45:35;;;;;;;7.07;5.97;;;20.10;99.90;;;;;;5114387;28;20145;-72
2023/06/27 08:48:02;;;;;;;7.70;6.03;;;20.10;99.90;;;;;;5114047;28;20085;-71
2023/06/27 08:50:29;;;;;;;11.20;5.78;;;20.10;99.90;;;;;;5114535;28;20087;-71
2023/06/27 08:53:01;;;;;;;9.52;6.60;;;20.10;99.90;;;;;;5095897;28;20023;-72
2023/06/27 08:55:44;;;;;;;9.93;7.07;;;20.10;99.90;;;;;;5114104;28;20020;-71
2023/06/27 08:58:14;;;;;;;14.48;6.65;;;20.10;99.90;;;;;;5114214;28;20038;-72
2023/06/27 09:00:42;;;;;;;10.73;6.20;;;20.10;99.90;;;;;;5114258;28;20038;-71
2023/06/27 09:03:08;;;;;;;12.88;5.82;;;20.10;99.90;;;;;;5113742;28;20089;-72
2023/06/27 09:05:34;;;;;;;9.27;5.53;;;20.20;99.90;;;;;;5113797;28;20414;-71
2023/06/27 09:07:59;;;;;;;7.93;5.85;;;20.10;99.90;;;;;;5113689;28;20031;-72
2023/06/27 09:10:26;;;;;;;8.18;5.57;;;20.20;99.90;;;;;;5113828;28;20035;-71
2023/06/27 09:12:54;;;;;;;10.68;6.05;;;20.20;99.90;;;;;;5113581;28;20036;-73
2023/06/27 09:15:20;;;;;;;11.30;5.88;;;20.20;99.90;;;;;;5095950;28;20376;-72
2023/06/27 09:17:46;;;;;;;9.32;6.15;;;20.20;99.90;;;;;;5130250;27;20375;-72
2023/06/27 09:20:19;;;;;;;8.25;6.30;;;20.20;99.90;;;;;;5123457;27;20033;-72
2023/06/27 09:22:45;;;;;;;10.05;6.35;;;20.20;99.90;;;;;;5113704;28;20042;-72
2023/06/27 09:25:11;;;;;;;9.35;5.70;;;20.10;99.90;;;;;;5113393;28;20443;-71
2023/06/27 09:27:37;;;;;;;13.75;5.90;;;20.00;99.90;;;;;;5113819;28;20104;-72
2023/06/27 09:30:05;;;;;;;9.65;6.35;;;20.00;99.90;;;;;;5113016;28;20358;-72
2023/06/27 09:32:31;;;;;;;11.18;6.55;;;20.00;99.90;;;;;;5113705;28;20099;-71
2023/06/27 09:35:00;;;;;;;9.57;6.70;;;19.90;99.90;;;;;;5113232;28;20130;-72
2023/06/27 09:37:33;;;;;;;13.20;6.65;;;19.80;99.90;;;;;;5113864;28;20028;-72
2023/06/27 09:40:19;;;;;;;9.52;6.57;;;19.80;99.90;;;;;;5094877;28;20023;-72
2023/06/27 09:42:55;;;;;;;9.95;6.40;;;19.80;99.90;;;;;;5113451;28;20377;-72
2023/06/27 09:45:23;;;;;;;10.90;6.35;;;19.80;99.90;;;;;;5112798;28;20417;-72
2023/06/27 09:47:55;;;;;;;10.18;6.63;;;19.80;99.90;;;;;;5113014;28;20053;-76
2023/06/27 09:50:28;;;;;;;7.03;5.75;;;19.80;99.90;;;;;;5113394;28;20035;-72
2023/06/27 09:53:05;;;;;;;13.02;6.38;;;19.80;99.90;;;;;;5112697;28;20605;-73
2023/06/27 09:55:30;;;;;;;9.88;6.38;;;19.80;99.90;;;;;;5113235;28;20026;-72
2023/06/27 09:57:57;;;;;;;10.38;6.18;;;19.80;99.90;;;;;;5112959;28;20027;-73
2023/06/27 10:00:26;;;;;;;10.70;6.82;;;19.90;99.90;;;;;;5113068;28;20023;-73
2023/06/27 10:02:52;;;;;;;10.13;5.57;;;19.90;99.90;;;;;;5112804;28;20032;-73
2023/06/27 10:05:20;;;;;;;8.80;5.93;;;19.80;99.90;;;;;;5112855;28;20028;-72
2023/06/27 10:07:48;;;;;;;8.57;6.03;;;19.90;99.90;;;;;;5113098;28;20367;-72
2023/06/27 10:10:15;;;;;;;9.77;5.43;;;19.90;99.90;;;;;;5118421;28;20352;-71
2023/06/27 10:12:45;;;;;;;8.55;5.30;;;19.90;99.90;;;;;;5133492;28;20305;-71
2023/06/27 10:15:11;;;;;;;9.18;5.85;;;19.90;99.90;;;;;;5133274;28;20023;-72
2023/06/27 10:17:37;;;;;;;6.88;5.00;;;19.90;99.90;;;;;;5133481;28;20039;-72
2023/06/27 10:20:08;;;;;;;8.68;6.00;;;19.90;99.90;;;;;;5132762;28;20084;-72
2023/06/27 10:22:35;;;;;;;10.02;6.60;;;19.90;99.90;;;;;;5133455;28;20521;-72
2023/06/27 10:25:06;;;;;;;6.10;4.88;;;19.90;99.90;;;;;;5133056;28;20419;-72
2023/06/27 10:27:34;;;;;;;7.72;5.53;;;19.80;99.90;;;;;;5133433;28;20028;-72
2023/06/27 10:30:09;;;;;;;9.35;5.28;;;19.80;99.90;;;;;;5133184;28;20031;-71
2023/06/27 10:32:45;;;;;;;10.00;5.32;;;19.70;99.90;;;;;;5133147;28;20494;-73
2023/06/27 10:35:12;;;;;;;6.25;4.97;;;19.70;99.90;;;;;;5132979;28;20478;-72
2023/06/27 10:37:42;;;;;;;7.53;4.93;;;19.70;99.90;;;;;;5133488;28;20023;-72
2023/06/27 10:40:09;;;;;;;9.05;4.90;;;19.70;99.90;;;;;;5132820;28;20168;-73
2023/06/27 10:42:35;;;;;;;13.38;5.45;;;19.80;99.90;;;;;;5133294;28;20034;-72
2023/06/27 10:45:08;;;;;;;9.75;4.95;;;20.00;99.90;;;;;;5133012;28;20046;-73
2023/06/27 10:47:52;;;;;;;9.63;4.00;;;20.00;99.90;;;;;;5133689;28;20075;-73
2023/06/27 10:50:22;;;;;;;6.25;4.25;;;20.10;99.90;;;;;;5133443;28;20027;-72
2023/06/27 10:53:01;;;;;;;10.77;4.97;;;20.10;99.90;;;;;;5133064;28;20135;-72
2023/06/27 10:55:28;;;;;;;9.15;4.28;;;20.00;99.90;;;;;;5134704;27;20098;-73
2023/06/27 10:58:09;;;;;;;8.40;4.88;;;19.90;99.90;;;;;;5136987;27;20027;-75
2023/06/27 11:00:40;;;;;;;6.88;4.30;;;19.90;99.90;;;;;;5137310;27;20114;-71
2023/06/27 11:03:08;;;;;;;5.32;4.32;;;19.90;99.90;;;;;;5136664;27;20038;-72
2023/06/27 11:05:37;;;;;;;8.15;5.22;;;19.80;99.90;;;;;;5137331;27;20114;-72
2023/06/27 11:08:07;;;;;;;9.85;4.60;;;19.70;99.90;;;;;;5136537;27;20041;-72
2023/06/27 11:10:32;;;;;;;8.60;4.88;;;19.60;99.90;;;;;;5136766;27;20050;-72
2023/06/27 11:13:18;;;;;;;8.23;4.57;;;19.70;99.90;;;;;;5131788;27;20045;-72
2023/06/27 11:15:45;;;;;;;10.88;4.95;;;19.80;99.90;;;;;;5136697;27;20027;-72
2023/06/27 11:18:15;;;;;;;6.30;4.18;;;19.90;99.90;;;;;;5136344;27;20027;-72
2023/06/27 11:20:41;;;;;;;13.02;5.55;;;19.90;99.90;;;;;;5136816;27;20050;-72
2023/06/27 11:23:07;;;;;;;8.50;4.10;;;20.00;99.90;;;;;;5136252;27;20076;-72
2023/06/27 11:25:42;;;;;;;5.65;4.28;;;20.00;99.90;;;;;;5136512;27;20027;-71
2023/06/27 11:28:08;;;;;;;8.88;4.75;;;20.10;99.90;;;;;;5136155;27;20023;-72
2023/06/27 11:30:35;;;;;;;9.38;4.35;;;20.10;99.90;;;;;;5136469;27;20470;-71
2023/06/27 11:33:02;;;;;;;10.02;4.45;;;20.00;99.90;;;;;;5136076;27;20539;-71
2023/06/27 11:35:30;;;;;;;8.27;4.22;;;20.00;99.90;;;;;;5136460;27;20027;-71
2023/06/27 11:37:56;;;;;;;7.40;4.53;;;20.00;99.90;;;;;;5136560;27;20034;-72
2023/06/27 11:40:23;;;;;;;6.00;3.88;;;19.90;99.90;;;;;;5136774;27;20353;-71
2023/06/27 11:42:49;;;;;;;7.53;4.10;;;20.00;99.90;;;;;;5136026;27;20092;-71
2023/06/27 11:45:14;;;;;;;6.40;4.43;;;20.00;99.90;;;;;;5135496;27;20023;-72
2023/06/27 11:47:40;;;;;;;13.05;4.50;;;20.10;99.90;;;;;;5136373;27;20046;-73
2023/06/27 11:50:10;;;;;;;8.48;4.68;;;20.00;99.90;;;;;;5135732;27;20039;-73
2023/06/27 11:52:39;;;;;;;7.73;4.87;;;19.90;99.90;;;;;;5136355;27;20106;-72
2023/06/27 11:55:05;;;;;;;9.85;5.25;;;19.80;99.90;;;;;;5135643;27;20585;-73
2023/06/27 11:57:44;;;;;;;6.15;4.57;;;19.80;99.90;;;;;;5136159;27;20023;-72
2023/06/27 12:00:17;;;;;;;9.85;4.63;;;19.70;99.90;;;;;;5135388;27;20487;-73
2023/06/27 12:02:49;;;;;;;6.97;4.80;;;19.80;99.90;;;;;;5135986;27;20043;-72
2023/06/27 12:05:16;;;;;;;9.75;5.20;;;19.80;99.90;;;;;;5135868;27;20027;-71
2023/06/27 12:08:08;;;;;;;9.13;4.97;;;19.90;99.90;;;;;;5135149;27;20061;-72
2023/06/27 12:10:51;;;;;;;6.90;4.65;;;20.00;99.90;;;;;;5103350;28;20541;-73
2023/06/27 12:13:17;;;;;;;8.48;4.32;;;20.10;99.90;;;;;;5114893;28;20024;-73
2023/06/27 12:15:44;;;;;;;7.38;4.63;;;20.30;99.90;;;;;;5114848;28;20065;-72
2023/06/27 12:18:11;;;;;;;7.43;4.95;;;20.40;99.90;;;;;;5096518;28;20042;-73
2023/06/27 12:20:42;;;;;;;12.57;4.63;;;20.40;99.90;;;;;;5115103;28;20077;-72
2023/06/27 12:23:08;;;;;;;;;;;20.50;99.90;;;;;;5114724;28;20472;-72
2023/06/27 12:25:33;;;;;;;9.95;4.47;;;20.60;99.90;;;;;;5115117;28;19904;-72
2023/06/27 12:28:00;;;;;;;7.38;3.83;;;20.70;99.90;;;;;;5115054;28;20058;-71
2023/06/27 12:30:26;;;;;;;7.25;3.60;;;20.80;99.80;;;;;;5114801;28;20031;-72
2023/06/27 12:32:52;;;;;;;6.95;3.85;;;20.80;95.50;;;;;;5096404;28;20122;-72
2023/06/27 12:35:18;;;;;;;10.13;3.70;;;20.90;95.70;;;;;;5114350;28;20452;-72
2023/06/27 12:37:47;;;;;;;9.15;2.70;;;21.00;95.40;;;;;;5114810;28;20030;-72
2023/06/27 12:40:15;;;;;;;13.00;3.03;;;21.10;94.90;;;;;;5114378;28;20027;-71
2023/06/27 12:42:42;;;;;;;5.38;2.00;;;21.00;89.90;;;;;;5114574;28;20405;-71
2023/06/27 12:45:11;;;;;;;4.10;2.40;;;21.00;81.30;;;;;;5114262;28;20032;-72